sensor_id;sensor_type;location;lat;lon;timestamp;temperature;humidity
8408;DHT22;4241;48.452;9.216;2023-02-22T00:01:39;5.90;99.90
8408;DHT22;4241;48.452;9.216;2023-02-22T00:04:15;5.80;99.90
8408;DHT22;4241;48.452;9.216;2023-02-22T00:06:47;5.80;99.90
8408;DHT22;4241;48.452;9.216;2023-02-22T00:09:15;5.80;99.90
8408;DHT22;4241;48.452;9.216;2023-02-22T00:11:45;5.80;99.90
8408;DHT22;4241;48.452;9.216;2023-02-22T00:14:12;5.70;99.90
8408;DHT22;4241;48.452;9.216;2023-02-22T00:16:39;5.70;99.90
8408;DHT22;4241;48.452;9.216;2023-02-22T00:19:06;5.70;99.90
8408;DHT22;4241;48.452;9.216;2023-02-22T00:21:33;5.70;99.90
8408;DHT22;4241;48.452;9.216;2023-02-22T00:24:01;5.70;99.90
8408;DHT22;4241;48.452;9.216;2023-02-22T00:26:41;5.70;99.90
8408;DHT22;4241;48.452;9.216;2023-02-22T00:29:08;5.70;99.90
8408;DHT22;4241;48.452;9.216;2023-02-22T00:31:36;5.70;99.90
8408;DHT22;4241;48.452;9.216;2023-02-22T00:34:03;5.60;99.90
8408;DHT22;4241;48.452;9.216;2023-02-22T00:36:30;5.60;99.90
8408;DHT22;4241;48.452;9.216;2023-02-22T00:38:57;5.60;99.90
8408;DHT22;4241;48.452;9.216;2023-02-22T00:41:25;5.60;99.90
8408;DHT22;4241;48.452;9.216;2023-02-22T00:43:52;5.50;99.90
8408;DHT22;4241;48.452;9.216;2023-02-22T00:46:18;5.50;99.90
8408;DHT22;4241;48.452;9.216;2023-02-22T00:48:45;5.50;99.90
8408;DHT22;4241;48.452;9.216;2023-02-22T00:51:12;5.50;99.90
8408;DHT22;4241;48.452;9.216;2023-02-22T00:53:39;5.50;99.90
8408;DHT22;4241;48.452;9.216;2023-02-22T00:56:06;5.50;99.90
8408;DHT22;4241;48.452;9.216;2023-02-22T00:58:35;5.50;99.90
8408;DHT22;4241;48.452;9.216;2023-02-22T01:01:02;5.40;99.90
8408;DHT22;4241;48.452;9.216;2023-02-22T01:03:29;5.40;99.90
8408;DHT22;4241;48.452;9.216;2023-02-22T01:05:56;5.60;99.90
8408;DHT22;4241;48.452;9.216;2023-02-22T01:08:23;5.50;99.90
8408;DHT22;4241;48.452;9.216;2023-02-22T01:10:50;5.60;99.90
8408;DHT22;4241;48.452;9.216;2023-02-22T01:13:17;5.70;99.90
8408;DHT22;4241;48.452;9.216;2023-02-22T01:15:45;5.70;99.90
8408;DHT22;4241;48.452;9.216;2023-02-22T01:18:12;5.70;99.90
8408;DHT22;4241;48.452;9.216;2023-02-22T01:20:41;5.80;99.90
8408;DHT22;4241;48.452;9.216;2023-02-22T01:23:12;5.80;99.90
8408;DHT22;4241;48.452;9.216;2023-02-22T01:25:41;5.80;99.90
8408;DHT22;4241;48.452;9.216;2023-02-22T01:28:09;5.80;99.90
8408;DHT22;4241;48.452;9.216;2023-02-22T01:30:37;5.90;99.90
8408;DHT22;4241;48.452;9.216;2023-02-22T01:33:06;5.90;99.90
8408;DHT22;4241;48.452;9.216;2023-02-22T01:35:35;5.90;99.90
8408;DHT22;4241;48.452;9.216;2023-02-22T01:38:03;5.90;99.90
8408;DHT22;4241;48.452;9.216;2023-02-22T01:40:31;5.90;99.90
8408;DHT22;4241;48.452;9.216;2023-02-22T01:43:01;5.90;99.90
8408;DHT22;4241;48.452;9.216;2023-02-22T01:45:44;5.80;99.90
8408;DHT22;4241;48.452;9.216;2023-02-22T01:48:23;5.80;99.90
8408;DHT22;4241;48.452;9.216;2023-02-22T01:50:54;5.70;99.90
8408;DHT22;4241;48.452;9.216;2023-02-22T01:53:25;5.60;99.90
8408;DHT22;4241;48.452;9.216;2023-02-22T01:55:54;5.50;99.90
8408;DHT22;4241;48.452;9.216;2023-02-22T01:58:22;5.50;99.90
8408;DHT22;4241;48.452;9.216;2023-02-22T02:00:50;5.50;99.90
8408;DHT22;4241;48.452;9.216;2023-02-22T02:03:20;5.50;99.90
8408;DHT22;4241;48.452;9.216;2023-02-22T02:05:49;5.50;99.90
8408;DHT22;4241;48.452;9.216;2023-02-22T02:08:24;5.40;99.90
8408;DHT22;4241;48.452;9.216;2023-02-22T02:10:54;5.40;99.90
8408;DHT22;4241;48.452;9.216;2023-02-22T02:13:21;5.30;99.90
8408;DHT22;4241;48.452;9.216;2023-02-22T02:15:48;5.30;99.90
8408;DHT22;4241;48.452;9.216;2023-02-22T02:18:18;5.30;99.90
8408;DHT22;4241;48.452;9.216;2023-02-22T02:20:53;5.30;99.90
8408;DHT22;4241;48.452;9.216;2023-02-22T02:23:42;5.30;99.90
8408;DHT22;4241;48.452;9.216;2023-02-22T02:26:37;5.20;99.90
8408;DHT22;4241;48.452;9.216;2023-02-22T02:29:33;5.20;99.90
8408;DHT22;4241;48.452;9.216;2023-02-22T02:32:22;5.20;99.90
8408;DHT22;4241;48.452;9.216;2023-02-22T02:34:57;5.20;99.90
8408;DHT22;4241;48.452;9.216;2023-02-22T02:37:35;5.20;99.90
8408;DHT22;4241;48.452;9.216;2023-02-22T02:40:11;5.20;99.90
8408;DHT22;4241;48.452;9.216;2023-02-22T02:42:50;5.10;99.90
8408;DHT22;4241;48.452;9.216;2023-02-22T02:45:24;5.10;99.90
8408;DHT22;4241;48.452;9.216;2023-02-22T02:47:55;5.00;99.90
8408;DHT22;4241;48.452;9.216;2023-02-22T02:50:26;5.10;99.90
8408;DHT22;4241;48.452;9.216;2023-02-22T02:52:56;5.10;99.90
8408;DHT22;4241;48.452;9.216;2023-02-22T02:55:27;5.10;99.90
8408;DHT22;4241;48.452;9.216;2023-02-22T02:57:54;5.10;99.90
8408;DHT22;4241;48.452;9.216;2023-02-22T03:00:25;5.10;99.90
8408;DHT22;4241;48.452;9.216;2023-02-22T03:03:06;5.10;99.90
8408;DHT22;4241;48.452;9.216;2023-02-22T03:05:49;5.00;99.90
8408;DHT22;4241;48.452;9.216;2023-02-22T03:08:23;5.10;99.90
8408;DHT22;4241;48.452;9.216;2023-02-22T03:11:00;5.10;99.90
8408;DHT22;4241;48.452;9.216;2023-02-22T03:13:34;5.10;99.90
8408;DHT22;4241;48.452;9.216;2023-02-22T03:16:14;5.10;99.90
8408;DHT22;4241;48.452;9.216;2023-02-22T03:18:49;5.10;99.90
8408;DHT22;4241;48.452;9.216;2023-02-22T03:21:23;5.00;99.90
8408;DHT22;4241;48.452;9.216;2023-02-22T03:23:59;5.00;99.90
8408;DHT22;4241;48.452;9.216;2023-02-22T03:26:34;5.00;99.90
8408;DHT22;4241;48.452;9.216;2023-02-22T03:29:05;5.00;99.90
8408;DHT22;4241;48.452;9.216;2023-02-22T03:31:37;4.90;99.90
8408;DHT22;4241;48.452;9.216;2023-02-22T03:34:10;4.90;99.90
8408;DHT22;4241;48.452;9.216;2023-02-22T03:36:41;4.90;99.90
8408;DHT22;4241;48.452;9.216;2023-02-22T03:39:12;4.80;99.90
8408;DHT22;4241;48.452;9.216;2023-02-22T03:41:43;4.90;99.90
8408;DHT22;4241;48.452;9.216;2023-02-22T03:44:15;4.90;99.90
8408;DHT22;4241;48.452;9.216;2023-02-22T03:46:44;4.90;99.90
8408;DHT22;4241;48.452;9.216;2023-02-22T03:49:19;4.80;99.90
8408;DHT22;4241;48.452;9.216;2023-02-22T03:51:48;4.80;99.90
8408;DHT22;4241;48.452;9.216;2023-02-22T03:54:15;4.80;99.90
8408;DHT22;4241;48.452;9.216;2023-02-22T03:56:46;4.80;99.90
8408;DHT22;4241;48.452;9.216;2023-02-22T03:59:14;4.80;99.90
8408;DHT22;4241;48.452;9.216;2023-02-22T04:01:41;4.80;99.90
8408;DHT22;4241;48.452;9.216;2023-02-22T04:04:08;4.80;99.90
8408;DHT22;4241;48.452;9.216;2023-02-22T04:06:36;4.70;99.90
8408;DHT22;4241;48.452;9.216;2023-02-22T04:09:03;4.70;99.90
8408;DHT22;4241;48.452;9.216;2023-02-22T04:11:33;4.70;99.90
8408;DHT22;4241;48.452;9.216;2023-02-22T04:13:59;4.70;99.90
8408;DHT22;4241;48.452;9.216;2023-02-22T04:16:26;4.70;99.90
8408;DHT22;4241;48.452;9.216;2023-02-22T04:18:53;4.70;99.90
8408;DHT22;4241;48.452;9.216;2023-02-22T04:21:20;4.60;99.90
8408;DHT22;4241;48.452;9.216;2023-02-22T04:23:49;4.60;99.90
8408;DHT22;4241;48.452;9.216;2023-02-22T04:26:16;4.50;99.90
8408;DHT22;4241;48.452;9.216;2023-02-22T04:28:43;4.50;99.90
8408;DHT22;4241;48.452;9.216;2023-02-22T04:31:09;4.60;99.90
8408;DHT22;4241;48.452;9.216;2023-02-22T04:33:36;4.50;99.90
8408;DHT22;4241;48.452;9.216;2023-02-22T04:36:04;4.50;99.90
8408;DHT22;4241;48.452;9.216;2023-02-22T04:38:32;4.50;99.90
8408;DHT22;4241;48.452;9.216;2023-02-22T04:41:01;4.50;99.90
8408;DHT22;4241;48.452;9.216;2023-02-22T04:43:27;4.50;99.90
8408;DHT22;4241;48.452;9.216;2023-02-22T04:45:54;4.50;99.90
8408;DHT22;4241;48.452;9.216;2023-02-22T04:48:21;4.50;99.90
8408;DHT22;4241;48.452;9.216;2023-02-22T04:50:48;4.50;99.90
8408;DHT22;4241;48.452;9.216;2023-02-22T04:53:15;4.40;99.90
8408;DHT22;4241;48.452;9.216;2023-02-22T04:55:42;4.40;99.90
8408;DHT22;4241;48.452;9.216;2023-02-22T04:58:10;4.40;99.90
8408;DHT22;4241;48.452;9.216;2023-02-22T05:00:37;4.30;99.90
8408;DHT22;4241;48.452;9.216;2023-02-22T05:03:04;4.30;99.90
8408;DHT22;4241;48.452;9.216;2023-02-22T05:05:31;4.30;99.90
8408;DHT22;4241;48.452;9.216;2023-02-22T05:07:58;4.30;99.90
8408;DHT22;4241;48.452;9.216;2023-02-22T05:10:24;4.30;99.90
8408;DHT22;4241;48.452;9.216;2023-02-22T05:12:51;4.30;99.90
8408;DHT22;4241;48.452;9.216;2023-02-22T05:15:20;4.30;99.90
8408;DHT22;4241;48.452;9.216;2023-02-22T05:17:49;4.20;99.90
8408;DHT22;4241;48.452;9.216;2023-02-22T05:20:22;4.20;99.90
8408;DHT22;4241;48.452;9.216;2023-02-22T05:22:49;4.00;99.90
8408;DHT22;4241;48.452;9.216;2023-02-22T05:25:16;4.20;99.90
8408;DHT22;4241;48.452;9.216;2023-02-22T05:27:48;4.20;99.90
8408;DHT22;4241;48.452;9.216;2023-02-22T05:30:15;4.30;99.90
8408;DHT22;4241;48.452;9.216;2023-02-22T05:32:43;4.30;99.90
8408;DHT22;4241;48.452;9.216;2023-02-22T05:35:10;4.30;99.90
8408;DHT22;4241;48.452;9.216;2023-02-22T05:37:37;4.40;99.90
8408;DHT22;4241;48.452;9.216;2023-02-22T05:40:05;4.40;99.90
8408;DHT22;4241;48.452;9.216;2023-02-22T05:42:32;4.40;99.90
8408;DHT22;4241;48.452;9.216;2023-02-22T05:44:59;4.40;99.90
8408;DHT22;4241;48.452;9.216;2023-02-22T05:47:26;4.40;99.90
8408;DHT22;4241;48.452;9.216;2023-02-22T05:49:54;4.40;99.90
8408;DHT22;4241;48.452;9.216;2023-02-22T05:52:21;4.40;99.90
8408;DHT22;4241;48.452;9.216;2023-02-22T05:54:48;4.30;99.90
8408;DHT22;4241;48.452;9.216;2023-02-22T05:57:15;4.40;99.90
8408;DHT22;4241;48.452;9.216;2023-02-22T05:59:42;4.40;99.90
8408;DHT22;4241;48.452;9.216;2023-02-22T06:02:09;4.40;99.90
8408;DHT22;4241;48.452;9.216;2023-02-22T06:04:35;4.40;99.90
8408;DHT22;4241;48.452;9.216;2023-02-22T06:07:03;4.50;99.90
8408;DHT22;4241;48.452;9.216;2023-02-22T06:09:31;4.50;99.90
8408;DHT22;4241;48.452;9.216;2023-02-22T06:11:57;4.70;99.90
8408;DHT22;4241;48.452;9.216;2023-02-22T06:14:24;4.60;99.90
8408;DHT22;4241;48.452;9.216;2023-02-22T06:16:52;4.60;99.90
8408;DHT22;4241;48.452;9.216;2023-02-22T06:19:19;4.60;99.90
8408;DHT22;4241;48.452;9.216;2023-02-22T06:21:48;4.60;99.90
8408;DHT22;4241;48.452;9.216;2023-02-22T06:24:17;4.50;99.90
8408;DHT22;4241;48.452;9.216;2023-02-22T06:26:44;4.60;99.90
8408;DHT22;4241;48.452;9.216;2023-02-22T06:29:11;4.70;99.90
8408;DHT22;4241;48.452;9.216;2023-02-22T06:31:38;4.70;99.90
8408;DHT22;4241;48.452;9.216;2023-02-22T06:34:05;4.70;99.90
8408;DHT22;4241;48.452;9.216;2023-02-22T06:36:31;4.70;99.90
8408;DHT22;4241;48.452;9.216;2023-02-22T06:38:58;4.60;99.90
8408;DHT22;4241;48.452;9.216;2023-02-22T06:41:26;4.80;99.90
8408;DHT22;4241;48.452;9.216;2023-02-22T06:43:53;4.70;99.90
8408;DHT22;4241;48.452;9.216;2023-02-22T06:46:20;4.80;99.90
8408;DHT22;4241;48.452;9.216;2023-02-22T06:48:47;4.80;99.90
8408;DHT22;4241;48.452;9.216;2023-02-22T06:51:16;4.90;99.90
8408;DHT22;4241;48.452;9.216;2023-02-22T06:53:43;4.90;99.90
8408;DHT22;4241;48.452;9.216;2023-02-22T06:56:09;4.90;99.90
8408;DHT22;4241;48.452;9.216;2023-02-22T06:58:37;4.90;99.90
8408;DHT22;4241;48.452;9.216;2023-02-22T07:01:04;4.90;99.90
8408;DHT22;4241;48.452;9.216;2023-02-22T07:03:32;5.00;99.90
8408;DHT22;4241;48.452;9.216;2023-02-22T07:06:00;5.10;99.90
8408;DHT22;4241;48.452;9.216;2023-02-22T07:08:29;5.10;99.90
8408;DHT22;4241;48.452;9.216;2023-02-22T07:10:56;5.20;99.90
8408;DHT22;4241;48.452;9.216;2023-02-22T07:13:22;5.30;99.90
8408;DHT22;4241;48.452;9.216;2023-02-22T07:15:51;5.40;99.90
8408;DHT22;4241;48.452;9.216;2023-02-22T07:18:17;5.40;99.90
8408;DHT22;4241;48.452;9.216;2023-02-22T07:20:44;5.40;99.90
8408;DHT22;4241;48.452;9.216;2023-02-22T07:23:13;5.60;99.90
8408;DHT22;4241;48.452;9.216;2023-02-22T07:25:40;5.60;99.90
8408;DHT22;4241;48.452;9.216;2023-02-22T07:28:07;5.70;99.90
8408;DHT22;4241;48.452;9.216;2023-02-22T07:30:36;5.80;99.90
8408;DHT22;4241;48.452;9.216;2023-02-22T07:33:06;5.80;99.90
8408;DHT22;4241;48.452;9.216;2023-02-22T07:35:34;6.20;99.90
8408;DHT22;4241;48.452;9.216;2023-02-22T07:38:02;5.80;99.90
8408;DHT22;4241;48.452;9.216;2023-02-22T07:40:30;5.80;99.90
8408;DHT22;4241;48.452;9.216;2023-02-22T07:42:59;5.80;99.90
8408;DHT22;4241;48.452;9.216;2023-02-22T07:45:27;5.90;99.90
8408;DHT22;4241;48.452;9.216;2023-02-22T07:47:55;6.10;99.90
8408;DHT22;4241;48.452;9.216;2023-02-22T07:50:25;6.00;99.90
8408;DHT22;4241;48.452;9.216;2023-02-22T07:52:53;6.00;99.90
8408;DHT22;4241;48.452;9.216;2023-02-22T07:55:22;5.90;99.90
8408;DHT22;4241;48.452;9.216;2023-02-22T07:57:51;6.00;99.90
8408;DHT22;4241;48.452;9.216;2023-02-22T08:00:22;6.00;99.90
8408;DHT22;4241;48.452;9.216;2023-02-22T08:02:50;6.00;99.90
8408;DHT22;4241;48.452;9.216;2023-02-22T08:05:18;6.00;99.90
8408;DHT22;4241;48.452;9.216;2023-02-22T08:07:46;5.90;99.90
8408;DHT22;4241;48.452;9.216;2023-02-22T08:10:14;6.00;99.90
8408;DHT22;4241;48.452;9.216;2023-02-22T08:12:41;6.00;99.90
8408;DHT22;4241;48.452;9.216;2023-02-22T08:15:14;5.90;99.90
8408;DHT22;4241;48.452;9.216;2023-02-22T08:17:41;5.90;99.90
8408;DHT22;4241;48.452;9.216;2023-02-22T08:20:08;5.90;99.90
8408;DHT22;4241;48.452;9.216;2023-02-22T08:22:35;6.00;99.90
8408;DHT22;4241;48.452;9.216;2023-02-22T08:25:04;6.00;99.90
8408;DHT22;4241;48.452;9.216;2023-02-22T08:27:31;6.00;99.90
8408;DHT22;4241;48.452;9.216;2023-02-22T08:29:58;6.10;99.90
8408;DHT22;4241;48.452;9.216;2023-02-22T08:32:25;6.10;99.90
8408;DHT22;4241;48.452;9.216;2023-02-22T08:34:52;6.10;99.90
8408;DHT22;4241;48.452;9.216;2023-02-22T08:37:19;6.20;99.90
8408;DHT22;4241;48.452;9.216;2023-02-22T08:39:46;6.20;99.90
8408;DHT22;4241;48.452;9.216;2023-02-22T08:42:14;6.20;99.90
8408;DHT22;4241;48.452;9.216;2023-02-22T08:44:41;6.10;99.90
8408;DHT22;4241;48.452;9.216;2023-02-22T08:47:08;6.10;99.90
8408;DHT22;4241;48.452;9.216;2023-02-22T08:49:35;6.10;99.90
8408;DHT22;4241;48.452;9.216;2023-02-22T08:52:02;6.20;99.90
8408;DHT22;4241;48.452;9.216;2023-02-22T08:54:29;6.10;99.90
8408;DHT22;4241;48.452;9.216;2023-02-22T08:56:56;6.20;99.90
8408;DHT22;4241;48.452;9.216;2023-02-22T08:59:24;6.30;99.90
8408;DHT22;4241;48.452;9.216;2023-02-22T09:01:51;6.30;99.90
8408;DHT22;4241;48.452;9.216;2023-02-22T09:04:19;6.50;99.90
8408;DHT22;4241;48.452;9.216;2023-02-22T09:06:46;6.60;99.90
8408;DHT22;4241;48.452;9.216;2023-02-22T09:09:16;6.80;99.90
8408;DHT22;4241;48.452;9.216;2023-02-22T09:11:45;6.90;99.90
8408;DHT22;4241;48.452;9.216;2023-02-22T09:14:12;6.90;99.90
8408;DHT22;4241;48.452;9.216;2023-02-22T09:16:42;7.10;99.90
8408;DHT22;4241;48.452;9.216;2023-02-22T09:19:09;7.30;99.90
8408;DHT22;4241;48.452;9.216;2023-02-22T09:21:36;7.50;99.90
8408;DHT22;4241;48.452;9.216;2023-02-22T09:24:05;7.60;99.90
8408;DHT22;4241;48.452;9.216;2023-02-22T09:26:33;7.80;99.90
8408;DHT22;4241;48.452;9.216;2023-02-22T09:29:04;8.00;99.90
8408;DHT22;4241;48.452;9.216;2023-02-22T09:31:34;8.10;99.90
8408;DHT22;4241;48.452;9.216;2023-02-22T09:34:02;8.30;99.90
8408;DHT22;4241;48.452;9.216;2023-02-22T09:36:30;8.40;99.90
8408;DHT22;4241;48.452;9.216;2023-02-22T09:38:57;8.50;99.90
8408;DHT22;4241;48.452;9.216;2023-02-22T09:41:26;8.70;99.90
8408;DHT22;4241;48.452;9.216;2023-02-22T09:44:10;8.80;99.90
8408;DHT22;4241;48.452;9.216;2023-02-22T09:46:41;8.70;99.90
8408;DHT22;4241;48.452;9.216;2023-02-22T09:49:19;8.90;99.90
8408;DHT22;4241;48.452;9.216;2023-02-22T09:51:49;8.90;99.90
8408;DHT22;4241;48.452;9.216;2023-02-22T09:54:21;9.00;99.90
8408;DHT22;4241;48.452;9.216;2023-02-22T09:56:52;9.10;99.90
8408;DHT22;4241;48.452;9.216;2023-02-22T09:59:24;9.40;99.90
8408;DHT22;4241;48.452;9.216;2023-02-22T10:01:57;9.60;99.90
8408;DHT22;4241;48.452;9.216;2023-02-22T10:04:35;9.60;99.90
8408;DHT22;4241;48.452;9.216;2023-02-22T10:07:14;9.90;99.90
8408;DHT22;4241;48.452;9.216;2023-02-22T10:09:45;10.10;99.90
8408;DHT22;4241;48.452;9.216;2023-02-22T10:12:18;10.30;99.90
8408;DHT22;4241;48.452;9.216;2023-02-22T10:15:11;10.40;99.90
8408;DHT22;4241;48.452;9.216;2023-02-22T10:17:48;10.60;99.90
8408;DHT22;4241;48.452;9.216;2023-02-22T10:20:32;10.70;99.90
8408;DHT22;4241;48.452;9.216;2023-02-22T10:23:12;10.90;99.90
8408;DHT22;4241;48.452;9.216;2023-02-22T10:25:43;10.90;99.90
8408;DHT22;4241;48.452;9.216;2023-02-22T10:28:15;11.10;99.90
8408;DHT22;4241;48.452;9.216;2023-02-22T10:30:49;11.20;99.90
8408;DHT22;4241;48.452;9.216;2023-02-22T10:33:21;11.40;99.90
8408;DHT22;4241;48.452;9.216;2023-02-22T10:35:51;11.60;99.90
8408;DHT22;4241;48.452;9.216;2023-02-22T10:38:20;11.80;99.90
8408;DHT22;4241;48.452;9.216;2023-02-22T10:40:49;11.80;99.90
8408;DHT22;4241;48.452;9.216;2023-02-22T10:43:19;11.80;99.90
8408;DHT22;4241;48.452;9.216;2023-02-22T10:45:47;11.80;99.90
8408;DHT22;4241;48.452;9.216;2023-02-22T10:48:19;12.00;99.90
8408;DHT22;4241;48.452;9.216;2023-02-22T10:50:48;12.10;99.90
8408;DHT22;4241;48.452;9.216;2023-02-22T10:53:18;12.20;99.90
8408;DHT22;4241;48.452;9.216;2023-02-22T10:56:13;12.30;99.90
8408;DHT22;4241;48.452;9.216;2023-02-22T10:58:45;12.40;99.90
8408;DHT22;4241;48.452;9.216;2023-02-22T11:01:20;12.60;99.90
8408;DHT22;4241;48.452;9.216;2023-02-22T11:03:59;12.70;99.90
8408;DHT22;4241;48.452;9.216;2023-02-22T11:06:28;12.90;99.90
8408;DHT22;4241;48.452;9.216;2023-02-22T11:09:07;13.00;99.90
8408;DHT22;4241;48.452;9.216;2023-02-22T11:11:36;13.10;99.90
8408;DHT22;4241;48.452;9.216;2023-02-22T11:14:04;13.30;99.90
8408;DHT22;4241;48.452;9.216;2023-02-22T11:16:33;13.40;99.90
8408;DHT22;4241;48.452;9.216;2023-02-22T11:19:15;13.80;99.90
8408;DHT22;4241;48.452;9.216;2023-02-22T11:21:47;13.70;99.90
8408;DHT22;4241;48.452;9.216;2023-02-22T11:24:17;13.90;99.90
8408;DHT22;4241;48.452;9.216;2023-02-22T11:26:47;13.90;99.90
8408;DHT22;4241;48.452;9.216;2023-02-22T11:29:19;13.90;99.90
8408;DHT22;4241;48.452;9.216;2023-02-22T11:31:47;14.00;99.90
8408;DHT22;4241;48.452;9.216;2023-02-22T11:34:27;14.30;99.90
8408;DHT22;4241;48.452;9.216;2023-02-22T11:36:56;14.40;99.90
8408;DHT22;4241;48.452;9.216;2023-02-22T11:39:28;14.60;99.90
8408;DHT22;4241;48.452;9.216;2023-02-22T11:42:16;14.80;99.90
8408;DHT22;4241;48.452;9.216;2023-02-22T11:44:44;15.00;96.50
8408;DHT22;4241;48.452;9.216;2023-02-22T11:47:11;15.20;95.10
8408;DHT22;4241;48.452;9.216;2023-02-22T11:49:40;15.50;95.80
8408;DHT22;4241;48.452;9.216;2023-02-22T11:52:16;15.70;93.90
8408;DHT22;4241;48.452;9.216;2023-02-22T11:54:57;15.90;92.40
8408;DHT22;4241;48.452;9.216;2023-02-22T11:57:40;16.00;91.80
8408;DHT22;4241;48.452;9.216;2023-02-22T12:00:18;16.10;89.90
8408;DHT22;4241;48.452;9.216;2023-02-22T12:06:09;16.00;84.00
8408;DHT22;4241;48.452;9.216;2023-02-22T12:08:46;16.00;86.50
8408;DHT22;4241;48.452;9.216;2023-02-22T12:11:21;16.10;86.30
8408;DHT22;4241;48.452;9.216;2023-02-22T12:14:03;15.90;83.60
8408;DHT22;4241;48.452;9.216;2023-02-22T12:16:42;16.10;86.90
8408;DHT22;4241;48.452;9.216;2023-02-22T12:19:20;16.10;81.90
8408;DHT22;4241;48.452;9.216;2023-02-22T12:21:54;16.00;82.40
8408;DHT22;4241;48.452;9.216;2023-02-22T12:24:28;16.00;81.10
8408;DHT22;4241;48.452;9.216;2023-02-22T12:27:01;15.80;78.90
8408;DHT22;4241;48.452;9.216;2023-02-22T12:29:32;15.80;81.20
8408;DHT22;4241;48.452;9.216;2023-02-22T12:32:05;15.50;82.60
8408;DHT22;4241;48.452;9.216;2023-02-22T12:34:36;15.50;81.50
8408;DHT22;4241;48.452;9.216;2023-02-22T12:37:13;15.50;82.00
8408;DHT22;4241;48.452;9.216;2023-02-22T12:39:51;15.40;81.30
8408;DHT22;4241;48.452;9.216;2023-02-22T12:42:23;15.40;80.80
8408;DHT22;4241;48.452;9.216;2023-02-22T12:44:56;15.40;82.40
8408;DHT22;4241;48.452;9.216;2023-02-22T12:47:30;15.20;83.40
8408;DHT22;4241;48.452;9.216;2023-02-22T12:50:05;15.00;83.40
8408;DHT22;4241;48.452;9.216;2023-02-22T12:52:41;14.90;83.00
8408;DHT22;4241;48.452;9.216;2023-02-22T12:55:15;14.90;81.80
8408;DHT22;4241;48.452;9.216;2023-02-22T12:57:48;14.80;83.80
8408;DHT22;4241;48.452;9.216;2023-02-22T13:00:20;14.70;82.40
8408;DHT22;4241;48.452;9.216;2023-02-22T13:02:56;14.70;83.70
8408;DHT22;4241;48.452;9.216;2023-02-22T13:05:24;14.80;84.90
8408;DHT22;4241;48.452;9.216;2023-02-22T13:08:01;14.70;85.60
8408;DHT22;4241;48.452;9.216;2023-02-22T13:10:56;14.70;82.50
8408;DHT22;4241;48.452;9.216;2023-02-22T13:13:30;13.80;82.40
8408;DHT22;4241;48.452;9.216;2023-02-22T13:16:04;14.60;86.50
8408;DHT22;4241;48.452;9.216;2023-02-22T13:18:41;14.60;87.90
8408;DHT22;4241;48.452;9.216;2023-02-22T13:21:16;14.70;87.50
8408;DHT22;4241;48.452;9.216;2023-02-22T13:23:48;14.70;88.00
8408;DHT22;4241;48.452;9.216;2023-02-22T13:26:22;14.50;90.50
8408;DHT22;4241;48.452;9.216;2023-02-22T13:28:56;14.60;87.70
8408;DHT22;4241;48.452;9.216;2023-02-22T13:31:42;14.40;88.90
8408;DHT22;4241;48.452;9.216;2023-02-22T13:37:23;14.30;90.20
8408;DHT22;4241;48.452;9.216;2023-02-22T13:43:18;14.30;90.40
8408;DHT22;4241;48.452;9.216;2023-02-22T13:46:16;14.40;90.30
8408;DHT22;4241;48.452;9.216;2023-02-22T13:51:51;14.50;90.70
8408;DHT22;4241;48.452;9.216;2023-02-22T13:54:23;14.60;89.10
8408;DHT22;4241;48.452;9.216;2023-02-22T13:56:53;14.60;90.00
8408;DHT22;4241;48.452;9.216;2023-02-22T13:59:26;14.50;90.20
8408;DHT22;4241;48.452;9.216;2023-02-22T14:01:54;14.40;88.30
8408;DHT22;4241;48.452;9.216;2023-02-22T14:04:40;14.30;90.00
8408;DHT22;4241;48.452;9.216;2023-02-22T14:10:46;14.60;89.30
8408;DHT22;4241;48.452;9.216;2023-02-22T14:13:14;14.60;88.30
8408;DHT22;4241;48.452;9.216;2023-02-22T14:16:16;14.60;85.90
8408;DHT22;4241;48.452;9.216;2023-02-22T14:18:46;14.60;89.90
8408;DHT22;4241;48.452;9.216;2023-02-22T14:21:15;14.70;89.30
8408;DHT22;4241;48.452;9.216;2023-02-22T14:23:44;14.60;89.20
8408;DHT22;4241;48.452;9.216;2023-02-22T14:26:15;14.70;88.20
8408;DHT22;4241;48.452;9.216;2023-02-22T14:28:50;14.80;87.50
8408;DHT22;4241;48.452;9.216;2023-02-22T14:31:22;14.80;88.20
8408;DHT22;4241;48.452;9.216;2023-02-22T14:33:58;14.80;86.20
8408;DHT22;4241;48.452;9.216;2023-02-22T14:36:31;14.80;88.50
8408;DHT22;4241;48.452;9.216;2023-02-22T14:39:07;14.80;90.00
8408;DHT22;4241;48.452;9.216;2023-02-22T14:41:37;14.70;88.20
8408;DHT22;4241;48.452;9.216;2023-02-22T14:44:06;14.80;89.60
8408;DHT22;4241;48.452;9.216;2023-02-22T14:46:40;14.70;86.40
8408;DHT22;4241;48.452;9.216;2023-02-22T14:49:11;14.70;89.60
8408;DHT22;4241;48.452;9.216;2023-02-22T14:51:49;14.70;87.90
8408;DHT22;4241;48.452;9.216;2023-02-22T14:54:24;14.70;87.10
8408;DHT22;4241;48.452;9.216;2023-02-22T14:56:57;14.70;87.10
8408;DHT22;4241;48.452;9.216;2023-02-22T14:59:26;14.70;86.50
8408;DHT22;4241;48.452;9.216;2023-02-22T15:02:06;14.60;86.00
8408;DHT22;4241;48.452;9.216;2023-02-22T15:04:36;14.60;87.20
8408;DHT22;4241;48.452;9.216;2023-02-22T15:07:08;14.60;86.90
8408;DHT22;4241;48.452;9.216;2023-02-22T15:09:41;14.60;86.50
8408;DHT22;4241;48.452;9.216;2023-02-22T15:12:15;14.60;85.80
8408;DHT22;4241;48.452;9.216;2023-02-22T15:14:46;14.60;87.00
8408;DHT22;4241;48.452;9.216;2023-02-22T15:17:19;14.60;86.50
8408;DHT22;4241;48.452;9.216;2023-02-22T15:19:47;14.50;87.10
8408;DHT22;4241;48.452;9.216;2023-02-22T15:22:19;14.50;88.30
8408;DHT22;4241;48.452;9.216;2023-02-22T15:24:57;14.50;86.70
8408;DHT22;4241;48.452;9.216;2023-02-22T15:27:24;14.40;88.70
8408;DHT22;4241;48.452;9.216;2023-02-22T15:29:56;14.40;87.80
8408;DHT22;4241;48.452;9.216;2023-02-22T15:32:30;14.30;86.20
8408;DHT22;4241;48.452;9.216;2023-02-22T15:35:14;14.30;87.20
8408;DHT22;4241;48.452;9.216;2023-02-22T15:37:42;14.20;87.20
8408;DHT22;4241;48.452;9.216;2023-02-22T15:40:14;14.20;88.70
8408;DHT22;4241;48.452;9.216;2023-02-22T15:42:46;14.10;89.50
8408;DHT22;4241;48.452;9.216;2023-02-22T15:45:15;14.00;90.60
8408;DHT22;4241;48.452;9.216;2023-02-22T15:47:43;13.90;91.70
8408;DHT22;4241;48.452;9.216;2023-02-22T15:50:16;13.90;92.70
8408;DHT22;4241;48.452;9.216;2023-02-22T15:52:51;13.80;91.60
8408;DHT22;4241;48.452;9.216;2023-02-22T15:55:25;13.70;91.80
8408;DHT22;4241;48.452;9.216;2023-02-22T15:57:53;13.60;91.70
8408;DHT22;4241;48.452;9.216;2023-02-22T16:00:23;13.60;92.60
8408;DHT22;4241;48.452;9.216;2023-02-22T16:02:51;13.50;92.50
8408;DHT22;4241;48.452;9.216;2023-02-22T16:05:38;13.40;93.30
8408;DHT22;4241;48.452;9.216;2023-02-22T16:08:13;13.50;93.60
8408;DHT22;4241;48.452;9.216;2023-02-22T16:10:46;13.40;94.30
8408;DHT22;4241;48.452;9.216;2023-02-22T16:13:21;13.50;95.20
8408;DHT22;4241;48.452;9.216;2023-02-22T16:15:59;13.30;95.90
8408;DHT22;4241;48.452;9.216;2023-02-22T16:18:31;13.20;96.70
8408;DHT22;4241;48.452;9.216;2023-02-22T16:21:06;13.30;97.50
8408;DHT22;4241;48.452;9.216;2023-02-22T16:23:46;13.10;98.50
8408;DHT22;4241;48.452;9.216;2023-02-22T16:26:22;13.10;99.30
8408;DHT22;4241;48.452;9.216;2023-02-22T16:28:50;13.00;99.90
8408;DHT22;4241;48.452;9.216;2023-02-22T16:31:19;12.90;99.90
8408;DHT22;4241;48.452;9.216;2023-02-22T16:33:51;12.90;99.90
8408;DHT22;4241;48.452;9.216;2023-02-22T16:36:20;12.90;99.90
8408;DHT22;4241;48.452;9.216;2023-02-22T16:38:48;13.10;99.90
8408;DHT22;4241;48.452;9.216;2023-02-22T16:41:16;12.80;99.90
8408;DHT22;4241;48.452;9.216;2023-02-22T16:43:45;12.80;99.90
8408;DHT22;4241;48.452;9.216;2023-02-22T16:46:15;12.80;99.90
8408;DHT22;4241;48.452;9.216;2023-02-22T16:48:43;12.80;99.90
8408;DHT22;4241;48.452;9.216;2023-02-22T16:51:23;12.80;99.90
8408;DHT22;4241;48.452;9.216;2023-02-22T16:53:52;12.50;99.90